Terminal Aerodrome Forecast
Issued by NWS Tulsa, OK

Home | Current Version | Previous Version | Text Only | Print | Product List | Glossary On
Versions: 1 2 3 4 5 6 7 8 9 10 11 12 13 14 15 16 17 18 19 20 21 22 23 24 25
000
FTUS44 KTSA 211739
TAFFSM
TAF
KFSM 211739Z 2118/2218 04006KT P6SM SCT100 BKN250
     FM212000 12008KT P6SM VCSH OVC050
     FM212300 11008KT 6SM -SHRA OVC040
      TEMPO 2200/2204 5SM -TSRA BKN025CB
     FM220600 08005KT P6SM VCSH OVC025
     FM221500 31011KT P6SM BKN035=

USA.gov is the U.S. government's official web portal to all federal, state and local government web resources and services.